KSVC  Grant County Airport

Add Bookmark

Silver City, New Mexico, United States

Status Useage IATA
Operational Public SVC
Latitude Longitude
32° 38' 11" N 108° 9' 22" W
32.636547 -108.156385
Local (DST -6) UTC (GMT -7)
Nov 1, 2014 03:28 Nov 1, 2014 09:28
Sunrise-Sunset Local UTC
Begin Civil Twilight 07:04 13:04
Sunrise 07:29 13:29
Sunset 06:22 00:22
End Civil Twilight 06:48 00:48

Current Weather

METAR Observed VFR
KSVC 010855Z AUTO 08006KT 10SM SCT085 12/05 A3020 Sat, Nov 1, 2014 @ 08:55 UTC
(33 Minutes ago)
Visual Flight Rules
Wind Visibility Clouds Conditions
080° at 6 knots (7 mph) 10 statute miles
  • Scattered at 8,500' AGL
  • No significant weather
Temperatures Readings Precipitation
Current Temp 12°C (54°F)
Dewpoint 5°C (41°F)
Humidity 63%
Altimeter 30.2"Hg
Sea Level Pressure 1023mb
Field Elevation 5443.01'
None Recorded

Additional weather within a 50nm radius of KSVC

Map ICAO Location
KDMN 31.5nm S (135°)
KLSB 32.6nm S (236°)

24 Hour Weather History

Loading
-

24 Hour Weather Graphs

Loading
-

CheckWX.com is intended as a tool to help pilots better visualize weather data. It is not intended as a substitute for an official weather briefing obtained from a Flight Service Station. CheckWX.com does not meet the FAA requirements for an official pre-flight weather briefing. Therefore, it's important that pilots still call and obtain an official FSS pre-flight weather briefing.